sensor_id;sensor_type;location;lat;lon;timestamp;temperature;humidity
43665;DHT22;29263;48.172;11.484;2023-10-08T00:01:35;16.10;71.40
43665;DHT22;29263;48.172;11.484;2023-10-08T00:04:01;16.10;74.00
43665;DHT22;29263;48.172;11.484;2023-10-08T00:06:29;16.10;72.50
43665;DHT22;29263;48.172;11.484;2023-10-08T00:08:56;16.10;70.90
43665;DHT22;29263;48.172;11.484;2023-10-08T00:11:26;16.20;70.70
43665;DHT22;29263;48.172;11.484;2023-10-08T00:13:54;16.30;69.40
43665;DHT22;29263;48.172;11.484;2023-10-08T00:16:22;16.40;69.50
43665;DHT22;29263;48.172;11.484;2023-10-08T00:18:48;16.50;68.80
43665;DHT22;29263;48.172;11.484;2023-10-08T00:21:17;16.50;69.40
43665;DHT22;29263;48.172;11.484;2023-10-08T00:23:45;16.50;69.20
43665;DHT22;29263;48.172;11.484;2023-10-08T00:26:18;16.60;68.70
43665;DHT22;29263;48.172;11.484;2023-10-08T00:28:55;16.60;68.20
43665;DHT22;29263;48.172;11.484;2023-10-08T00:31:22;16.70;68.00
43665;DHT22;29263;48.172;11.484;2023-10-08T00:33:52;16.70;69.20
43665;DHT22;29263;48.172;11.484;2023-10-08T00:36:18;16.70;69.30
43665;DHT22;29263;48.172;11.484;2023-10-08T00:38:45;16.80;67.50
43665;DHT22;29263;48.172;11.484;2023-10-08T00:41:13;16.80;67.50
43665;DHT22;29263;48.172;11.484;2023-10-08T00:43:47;16.90;67.50
43665;DHT22;29263;48.172;11.484;2023-10-08T00:46:13;17.00;67.20
43665;DHT22;29263;48.172;11.484;2023-10-08T00:49:12;17.00;66.80
43665;DHT22;29263;48.172;11.484;2023-10-08T00:51:50;17.10;67.40
43665;DHT22;29263;48.172;11.484;2023-10-08T00:54:35;17.10;67.40
43665;DHT22;29263;48.172;11.484;2023-10-08T00:57:15;17.10;67.30
43665;DHT22;29263;48.172;11.484;2023-10-08T00:59:46;17.10;65.70
43665;DHT22;29263;48.172;11.484;2023-10-08T01:02:22;17.20;66.50
43665;DHT22;29263;48.172;11.484;2023-10-08T01:04:53;17.30;66.20
43665;DHT22;29263;48.172;11.484;2023-10-08T01:07:21;17.30;65.60
43665;DHT22;29263;48.172;11.484;2023-10-08T01:09:48;17.20;66.10
43665;DHT22;29263;48.172;11.484;2023-10-08T01:12:23;17.30;65.30
43665;DHT22;29263;48.172;11.484;2023-10-08T01:14:58;17.30;65.50
43665;DHT22;29263;48.172;11.484;2023-10-08T01:17:30;17.30;66.40
43665;DHT22;29263;48.172;11.484;2023-10-08T01:19:58;17.40;64.70
43665;DHT22;29263;48.172;11.484;2023-10-08T01:22:34;17.40;65.60
43665;DHT22;29263;48.172;11.484;2023-10-08T01:25:00;17.40;65.00
43665;DHT22;29263;48.172;11.484;2023-10-08T01:27:30;17.40;64.80
43665;DHT22;29263;48.172;11.484;2023-10-08T01:30:00;17.40;65.50
43665;DHT22;29263;48.172;11.484;2023-10-08T01:32:44;17.40;66.70
43665;DHT22;29263;48.172;11.484;2023-10-08T01:35:10;17.40;64.30
43665;DHT22;29263;48.172;11.484;2023-10-08T01:37:52;17.40;65.60
43665;DHT22;29263;48.172;11.484;2023-10-08T01:40:18;17.40;64.20
43665;DHT22;29263;48.172;11.484;2023-10-08T01:42:44;17.40;64.50
43665;DHT22;29263;48.172;11.484;2023-10-08T01:45:09;17.40;64.50
43665;DHT22;29263;48.172;11.484;2023-10-08T01:47:38;17.40;64.00
43665;DHT22;29263;48.172;11.484;2023-10-08T01:50:04;17.40;65.10
43665;DHT22;29263;48.172;11.484;2023-10-08T01:52:34;17.40;65.70
43665;DHT22;29263;48.172;11.484;2023-10-08T01:55:00;17.40;64.80
43665;DHT22;29263;48.172;11.484;2023-10-08T01:57:25;17.40;63.90
43665;DHT22;29263;48.172;11.484;2023-10-08T01:59:51;17.40;64.40
43665;DHT22;29263;48.172;11.484;2023-10-08T02:02:17;17.40;64.00
43665;DHT22;29263;48.172;11.484;2023-10-08T02:04:42;17.40;64.00
43665;DHT22;29263;48.172;11.484;2023-10-08T02:07:09;17.50;63.90
43665;DHT22;29263;48.172;11.484;2023-10-08T02:09:39;17.50;64.80
43665;DHT22;29263;48.172;11.484;2023-10-08T02:12:04;17.40;64.00
43665;DHT22;29263;48.172;11.484;2023-10-08T02:14:30;17.40;63.90
43665;DHT22;29263;48.172;11.484;2023-10-08T02:16:58;17.40;63.00
43665;DHT22;29263;48.172;11.484;2023-10-08T02:19:27;17.50;63.10
43665;DHT22;29263;48.172;11.484;2023-10-08T02:21:54;17.50;64.30
43665;DHT22;29263;48.172;11.484;2023-10-08T02:24:21;17.40;64.00
43665;DHT22;29263;48.172;11.484;2023-10-08T02:26:47;17.50;63.70
43665;DHT22;29263;48.172;11.484;2023-10-08T02:29:13;17.50;63.80
43665;DHT22;29263;48.172;11.484;2023-10-08T02:31:40;17.50;63.60
43665;DHT22;29263;48.172;11.484;2023-10-08T02:34:06;17.40;64.50
43665;DHT22;29263;48.172;11.484;2023-10-08T02:36:36;17.40;63.90
43665;DHT22;29263;48.172;11.484;2023-10-08T02:39:03;17.50;64.00
43665;DHT22;29263;48.172;11.484;2023-10-08T02:41:40;17.40;64.90
43665;DHT22;29263;48.172;11.484;2023-10-08T02:44:07;17.40;62.90
43665;DHT22;29263;48.172;11.484;2023-10-08T02:46:41;17.50;63.40
43665;DHT22;29263;48.172;11.484;2023-10-08T02:49:10;17.50;64.40
43665;DHT22;29263;48.172;11.484;2023-10-08T02:51:39;17.50;63.20
43665;DHT22;29263;48.172;11.484;2023-10-08T02:54:07;17.50;63.20
43665;DHT22;29263;48.172;11.484;2023-10-08T02:56:34;17.50;63.70
43665;DHT22;29263;48.172;11.484;2023-10-08T02:58:59;17.50;63.40
43665;DHT22;29263;48.172;11.484;2023-10-08T03:01:26;17.50;63.70
43665;DHT22;29263;48.172;11.484;2023-10-08T03:03:52;17.50;63.60
43665;DHT22;29263;48.172;11.484;2023-10-08T03:06:29;17.50;63.10
43665;DHT22;29263;48.172;11.484;2023-10-08T03:08:57;17.50;64.30
43665;DHT22;29263;48.172;11.484;2023-10-08T03:11:29;17.50;63.50
43665;DHT22;29263;48.172;11.484;2023-10-08T03:13:56;17.50;63.50
43665;DHT22;29263;48.172;11.484;2023-10-08T03:16:22;17.50;63.10
43665;DHT22;29263;48.172;11.484;2023-10-08T03:18:54;17.50;63.40
43665;DHT22;29263;48.172;11.484;2023-10-08T03:21:22;17.50;63.50
43665;DHT22;29263;48.172;11.484;2023-10-08T03:24:00;17.50;62.80
43665;DHT22;29263;48.172;11.484;2023-10-08T03:26:32;17.50;62.50
43665;DHT22;29263;48.172;11.484;2023-10-08T03:29:02;17.50;63.10
43665;DHT22;29263;48.172;11.484;2023-10-08T03:31:33;17.50;63.30
43665;DHT22;29263;48.172;11.484;2023-10-08T03:34:11;17.50;63.30
43665;DHT22;29263;48.172;11.484;2023-10-08T03:36:43;17.50;62.70
43665;DHT22;29263;48.172;11.484;2023-10-08T03:39:14;17.50;62.50
43665;DHT22;29263;48.172;11.484;2023-10-08T03:41:41;17.50;62.20
43665;DHT22;29263;48.172;11.484;2023-10-08T03:44:07;17.50;64.60
43665;DHT22;29263;48.172;11.484;2023-10-08T03:46:41;17.50;64.20
43665;DHT22;29263;48.172;11.484;2023-10-08T03:49:15;17.50;64.30
43665;DHT22;29263;48.172;11.484;2023-10-08T03:51:51;17.40;64.50
43665;DHT22;29263;48.172;11.484;2023-10-08T03:54:17;17.40;63.80
43665;DHT22;29263;48.172;11.484;2023-10-08T03:56:45;17.40;63.70
43665;DHT22;29263;48.172;11.484;2023-10-08T03:59:15;17.40;63.30
43665;DHT22;29263;48.172;11.484;2023-10-08T04:02:12;17.40;63.80
43665;DHT22;29263;48.172;11.484;2023-10-08T04:05:05;17.40;63.80
43665;DHT22;29263;48.172;11.484;2023-10-08T04:07:44;17.40;65.30
43665;DHT22;29263;48.172;11.484;2023-10-08T04:10:25;17.40;65.10
43665;DHT22;29263;48.172;11.484;2023-10-08T04:13:15;17.40;64.90
43665;DHT22;29263;48.172;11.484;2023-10-08T04:15:42;17.40;64.60
43665;DHT22;29263;48.172;11.484;2023-10-08T04:18:08;17.30;64.30
43665;DHT22;29263;48.172;11.484;2023-10-08T04:20:34;17.40;64.90
43665;DHT22;29263;48.172;11.484;2023-10-08T04:23:08;17.30;65.10
43665;DHT22;29263;48.172;11.484;2023-10-08T04:25:43;17.30;65.40
43665;DHT22;29263;48.172;11.484;2023-10-08T04:28:10;17.30;65.50
43665;DHT22;29263;48.172;11.484;2023-10-08T04:30:40;17.20;65.70
43665;DHT22;29263;48.172;11.484;2023-10-08T04:33:08;17.20;65.20
43665;DHT22;29263;48.172;11.484;2023-10-08T04:35:36;17.20;64.70
43665;DHT22;29263;48.172;11.484;2023-10-08T04:38:06;17.20;67.10
43665;DHT22;29263;48.172;11.484;2023-10-08T04:40:37;17.20;66.50
43665;DHT22;29263;48.172;11.484;2023-10-08T04:43:29;17.10;68.50
43665;DHT22;29263;48.172;11.484;2023-10-08T04:45:58;17.10;67.10
43665;DHT22;29263;48.172;11.484;2023-10-08T04:48:25;17.10;66.70
43665;DHT22;29263;48.172;11.484;2023-10-08T04:50:55;17.10;66.80
43665;DHT22;29263;48.172;11.484;2023-10-08T04:53:31;17.10;66.00
43665;DHT22;29263;48.172;11.484;2023-10-08T04:56:01;17.20;64.50
43665;DHT22;29263;48.172;11.484;2023-10-08T04:58:40;17.20;65.40
43665;DHT22;29263;48.172;11.484;2023-10-08T05:01:08;17.20;65.30
43665;DHT22;29263;48.172;11.484;2023-10-08T05:03:50;17.20;64.20
43665;DHT22;29263;48.172;11.484;2023-10-08T05:06:29;17.20;64.00
43665;DHT22;29263;48.172;11.484;2023-10-08T05:09:09;17.20;65.30
43665;DHT22;29263;48.172;11.484;2023-10-08T05:11:52;17.20;65.30
43665;DHT22;29263;48.172;11.484;2023-10-08T05:14:21;17.20;65.90
43665;DHT22;29263;48.172;11.484;2023-10-08T05:19:57;17.10;67.40
43665;DHT22;29263;48.172;11.484;2023-10-08T05:22:41;17.10;66.40
43665;DHT22;29263;48.172;11.484;2023-10-08T05:25:10;17.00;66.80
43665;DHT22;29263;48.172;11.484;2023-10-08T05:27:53;17.00;67.90
43665;DHT22;29263;48.172;11.484;2023-10-08T05:30:29;17.00;70.50
43665;DHT22;29263;48.172;11.484;2023-10-08T05:33:08;16.90;72.20
43665;DHT22;29263;48.172;11.484;2023-10-08T05:35:51;16.80;73.90
43665;DHT22;29263;48.172;11.484;2023-10-08T05:38:23;16.70;71.10
43665;DHT22;29263;48.172;11.484;2023-10-08T05:40:52;16.70;70.90
43665;DHT22;29263;48.172;11.484;2023-10-08T05:43:28;16.60;69.90
43665;DHT22;29263;48.172;11.484;2023-10-08T05:48:50;16.70;65.80
43665;DHT22;29263;48.172;11.484;2023-10-08T05:51:28;16.80;67.30
43665;DHT22;29263;48.172;11.484;2023-10-08T05:54:20;16.80;69.10
43665;DHT22;29263;48.172;11.484;2023-10-08T05:57:05;16.80;66.00
43665;DHT22;29263;48.172;11.484;2023-10-08T05:59:41;16.80;65.30
43665;DHT22;29263;48.172;11.484;2023-10-08T06:02:29;16.80;66.10
43665;DHT22;29263;48.172;11.484;2023-10-08T06:05:08;16.80;67.20
43665;DHT22;29263;48.172;11.484;2023-10-08T06:07:50;16.80;67.10
43665;DHT22;29263;48.172;11.484;2023-10-08T06:10:23;16.80;66.60
43665;DHT22;29263;48.172;11.484;2023-10-08T06:13:02;16.80;66.90
43665;DHT22;29263;48.172;11.484;2023-10-08T06:15:43;16.80;67.90
43665;DHT22;29263;48.172;11.484;2023-10-08T06:18:28;16.80;68.50
43665;DHT22;29263;48.172;11.484;2023-10-08T06:20:57;16.80;68.20
43665;DHT22;29263;48.172;11.484;2023-10-08T06:23:28;16.80;67.60
43665;DHT22;29263;48.172;11.484;2023-10-08T06:25:57;16.80;67.90
43665;DHT22;29263;48.172;11.484;2023-10-08T06:28:25;16.80;68.30
43665;DHT22;29263;48.172;11.484;2023-10-08T06:30:55;16.80;68.90
43665;DHT22;29263;48.172;11.484;2023-10-08T06:33:24;16.80;69.90
43665;DHT22;29263;48.172;11.484;2023-10-08T06:35:56;16.80;71.70
43665;DHT22;29263;48.172;11.484;2023-10-08T06:38:31;16.70;72.90
43665;DHT22;29263;48.172;11.484;2023-10-08T06:41:01;16.70;73.40
43665;DHT22;29263;48.172;11.484;2023-10-08T06:43:37;16.60;74.00
43665;DHT22;29263;48.172;11.484;2023-10-08T06:46:05;16.60;74.20
43665;DHT22;29263;48.172;11.484;2023-10-08T06:48:38;16.60;74.60
43665;DHT22;29263;48.172;11.484;2023-10-08T06:51:10;16.70;74.10
43665;DHT22;29263;48.172;11.484;2023-10-08T06:53:39;16.80;75.90
43665;DHT22;29263;48.172;11.484;2023-10-08T06:56:05;16.80;75.30
43665;DHT22;29263;48.172;11.484;2023-10-08T06:58:31;16.80;75.50
43665;DHT22;29263;48.172;11.484;2023-10-08T07:01:00;16.90;73.20
43665;DHT22;29263;48.172;11.484;2023-10-08T07:03:35;17.00;72.10
43665;DHT22;29263;48.172;11.484;2023-10-08T07:06:01;17.10;70.00
43665;DHT22;29263;48.172;11.484;2023-10-08T07:08:32;17.20;71.10
43665;DHT22;29263;48.172;11.484;2023-10-08T07:11:00;17.30;72.60
43665;DHT22;29263;48.172;11.484;2023-10-08T07:13:37;17.30;71.80
43665;DHT22;29263;48.172;11.484;2023-10-08T07:16:05;17.30;71.80
43665;DHT22;29263;48.172;11.484;2023-10-08T07:18:33;17.40;71.40
43665;DHT22;29263;48.172;11.484;2023-10-08T07:20:59;17.40;72.10
43665;DHT22;29263;48.172;11.484;2023-10-08T07:23:29;17.40;73.40
43665;DHT22;29263;48.172;11.484;2023-10-08T07:26:00;17.40;74.00
43665;DHT22;29263;48.172;11.484;2023-10-08T07:28:44;17.40;71.60
43665;DHT22;29263;48.172;11.484;2023-10-08T07:31:20;17.50;72.80
43665;DHT22;29263;48.172;11.484;2023-10-08T07:33:48;17.60;72.50
43665;DHT22;29263;48.172;11.484;2023-10-08T07:36:25;17.70;69.70
43665;DHT22;29263;48.172;11.484;2023-10-08T07:38:54;17.80;70.70
43665;DHT22;29263;48.172;11.484;2023-10-08T07:41:20;17.80;69.90
43665;DHT22;29263;48.172;11.484;2023-10-08T07:43:47;17.90;71.10
43665;DHT22;29263;48.172;11.484;2023-10-08T07:46:21;17.90;71.20
43665;DHT22;29263;48.172;11.484;2023-10-08T07:48:47;17.90;71.30
43665;DHT22;29263;48.172;11.484;2023-10-08T07:51:16;17.90;72.60
43665;DHT22;29263;48.172;11.484;2023-10-08T07:53:49;17.90;71.80
43665;DHT22;29263;48.172;11.484;2023-10-08T07:56:19;17.90;71.90
43665;DHT22;29263;48.172;11.484;2023-10-08T07:58:45;18.00;71.50
43665;DHT22;29263;48.172;11.484;2023-10-08T08:01:10;18.00;72.40
43665;DHT22;29263;48.172;11.484;2023-10-08T08:03:39;18.00;73.10
43665;DHT22;29263;48.172;11.484;2023-10-08T08:06:07;18.00;72.40
43665;DHT22;29263;48.172;11.484;2023-10-08T08:08:34;17.90;72.80
43665;DHT22;29263;48.172;11.484;2023-10-08T08:11:01;17.90;73.50
43665;DHT22;29263;48.172;11.484;2023-10-08T08:13:35;18.00;72.30
43665;DHT22;29263;48.172;11.484;2023-10-08T08:16:01;18.00;73.10
43665;DHT22;29263;48.172;11.484;2023-10-08T08:18:54;18.00;74.30
43665;DHT22;29263;48.172;11.484;2023-10-08T08:21:25;18.10;74.70
43665;DHT22;29263;48.172;11.484;2023-10-08T08:23:51;18.10;73.80
43665;DHT22;29263;48.172;11.484;2023-10-08T08:26:24;18.10;74.80
43665;DHT22;29263;48.172;11.484;2023-10-08T08:28:58;18.20;74.20
43665;DHT22;29263;48.172;11.484;2023-10-08T08:31:25;18.20;74.50
43665;DHT22;29263;48.172;11.484;2023-10-08T08:33:52;18.20;74.00
43665;DHT22;29263;48.172;11.484;2023-10-08T08:36:19;18.20;74.50
43665;DHT22;29263;48.172;11.484;2023-10-08T08:38:45;18.20;74.30
43665;DHT22;29263;48.172;11.484;2023-10-08T08:41:12;18.20;73.60
43665;DHT22;29263;48.172;11.484;2023-10-08T08:43:38;18.20;73.80
43665;DHT22;29263;48.172;11.484;2023-10-08T08:46:10;18.20;74.90
43665;DHT22;29263;48.172;11.484;2023-10-08T08:48:40;18.20;76.30
43665;DHT22;29263;48.172;11.484;2023-10-08T08:51:07;18.20;76.10
43665;DHT22;29263;48.172;11.484;2023-10-08T08:53:36;18.10;78.00
43665;DHT22;29263;48.172;11.484;2023-10-08T08:56:02;18.10;82.90
43665;DHT22;29263;48.172;11.484;2023-10-08T08:58:33;18.00;83.90
43665;DHT22;29263;48.172;11.484;2023-10-08T09:01:03;18.00;84.30
43665;DHT22;29263;48.172;11.484;2023-10-08T09:03:30;18.00;84.80
43665;DHT22;29263;48.172;11.484;2023-10-08T09:05:57;18.00;84.90
43665;DHT22;29263;48.172;11.484;2023-10-08T09:08:25;18.00;84.80
43665;DHT22;29263;48.172;11.484;2023-10-08T09:10:52;18.00;84.80
43665;DHT22;29263;48.172;11.484;2023-10-08T09:13:26;18.00;85.50
43665;DHT22;29263;48.172;11.484;2023-10-08T09:16:17;18.10;84.30
43665;DHT22;29263;48.172;11.484;2023-10-08T09:18:43;18.10;85.10
43665;DHT22;29263;48.172;11.484;2023-10-08T09:21:12;18.20;83.30
43665;DHT22;29263;48.172;11.484;2023-10-08T09:23:43;18.30;78.20
43665;DHT22;29263;48.172;11.484;2023-10-08T09:26:09;18.40;79.80
43665;DHT22;29263;48.172;11.484;2023-10-08T09:28:36;18.40;79.80
43665;DHT22;29263;48.172;11.484;2023-10-08T09:31:04;18.50;77.80
43665;DHT22;29263;48.172;11.484;2023-10-08T09:33:32;18.50;75.20
43665;DHT22;29263;48.172;11.484;2023-10-08T09:35:58;18.60;75.10
43665;DHT22;29263;48.172;11.484;2023-10-08T09:38:28;18.60;75.00
43665;DHT22;29263;48.172;11.484;2023-10-08T09:40:55;18.60;75.70
43665;DHT22;29263;48.172;11.484;2023-10-08T09:43:22;18.70;75.60
43665;DHT22;29263;48.172;11.484;2023-10-08T09:45:55;18.80;73.90
43665;DHT22;29263;48.172;11.484;2023-10-08T09:48:26;18.90;74.00
43665;DHT22;29263;48.172;11.484;2023-10-08T09:50:53;19.00;74.60
43665;DHT22;29263;48.172;11.484;2023-10-08T09:53:28;19.10;74.80
43665;DHT22;29263;48.172;11.484;2023-10-08T09:55:57;19.10;75.20
43665;DHT22;29263;48.172;11.484;2023-10-08T09:58:25;19.30;75.70
43665;DHT22;29263;48.172;11.484;2023-10-08T10:00:54;19.30;76.20
43665;DHT22;29263;48.172;11.484;2023-10-08T10:03:20;19.40;75.80
43665;DHT22;29263;48.172;11.484;2023-10-08T10:05:48;19.40;77.00
43665;DHT22;29263;48.172;11.484;2023-10-08T10:08:15;19.50;73.50
43665;DHT22;29263;48.172;11.484;2023-10-08T10:10:41;19.50;73.40
43665;DHT22;29263;48.172;11.484;2023-10-08T10:13:13;19.50;74.00
43665;DHT22;29263;48.172;11.484;2023-10-08T10:15:42;19.50;75.00
43665;DHT22;29263;48.172;11.484;2023-10-08T10:18:09;19.50;76.60
43665;DHT22;29263;48.172;11.484;2023-10-08T10:20:45;19.40;77.90
43665;DHT22;29263;48.172;11.484;2023-10-08T10:23:36;19.40;76.10
43665;DHT22;29263;48.172;11.484;2023-10-08T10:26:03;19.40;75.90
43665;DHT22;29263;48.172;11.484;2023-10-08T10:28:29;19.40;75.70
43665;DHT22;29263;48.172;11.484;2023-10-08T10:30:55;19.40;76.10
43665;DHT22;29263;48.172;11.484;2023-10-08T10:33:29;19.40;75.00
43665;DHT22;29263;48.172;11.484;2023-10-08T10:35:55;19.40;75.30
43665;DHT22;29263;48.172;11.484;2023-10-08T10:38:21;19.30;75.50
43665;DHT22;29263;48.172;11.484;2023-10-08T10:40:51;19.20;75.30
43665;DHT22;29263;48.172;11.484;2023-10-08T10:43:24;19.20;75.80
43665;DHT22;29263;48.172;11.484;2023-10-08T10:46:00;19.20;76.30
43665;DHT22;29263;48.172;11.484;2023-10-08T10:48:49;19.20;75.40
43665;DHT22;29263;48.172;11.484;2023-10-08T10:51:22;19.20;76.20
43665;DHT22;29263;48.172;11.484;2023-10-08T10:53:48;19.20;78.20
43665;DHT22;29263;48.172;11.484;2023-10-08T10:56:23;19.30;76.50
43665;DHT22;29263;48.172;11.484;2023-10-08T10:58:59;19.30;78.30
43665;DHT22;29263;48.172;11.484;2023-10-08T11:01:28;19.20;77.70
43665;DHT22;29263;48.172;11.484;2023-10-08T11:04:10;19.20;78.00
43665;DHT22;29263;48.172;11.484;2023-10-08T11:06:42;19.20;77.50
43665;DHT22;29263;48.172;11.484;2023-10-08T11:09:10;19.20;78.80
43665;DHT22;29263;48.172;11.484;2023-10-08T11:11:42;19.20;78.20
43665;DHT22;29263;48.172;11.484;2023-10-08T11:14:11;19.20;77.40
43665;DHT22;29263;48.172;11.484;2023-10-08T11:16:45;19.20;77.70
43665;DHT22;29263;48.172;11.484;2023-10-08T11:19:11;19.10;79.40
43665;DHT22;29263;48.172;11.484;2023-10-08T11:21:53;19.20;77.20
43665;DHT22;29263;48.172;11.484;2023-10-08T11:24:29;19.10;77.10
43665;DHT22;29263;48.172;11.484;2023-10-08T11:26:55;19.20;78.10
43665;DHT22;29263;48.172;11.484;2023-10-08T11:29:39;19.20;77.20
43665;DHT22;29263;48.172;11.484;2023-10-08T11:32:06;19.20;77.70
43665;DHT22;29263;48.172;11.484;2023-10-08T11:34:38;19.20;77.60
43665;DHT22;29263;48.172;11.484;2023-10-08T11:37:05;19.20;78.30
43665;DHT22;29263;48.172;11.484;2023-10-08T11:39:46;19.20;77.60
43665;DHT22;29263;48.172;11.484;2023-10-08T11:42:11;19.20;78.40
43665;DHT22;29263;48.172;11.484;2023-10-08T11:44:56;19.20;78.70
43665;DHT22;29263;48.172;11.484;2023-10-08T11:47:25;19.20;79.30
43665;DHT22;29263;48.172;11.484;2023-10-08T11:49:56;19.20;79.10
43665;DHT22;29263;48.172;11.484;2023-10-08T11:52:38;19.20;79.30
43665;DHT22;29263;48.172;11.484;2023-10-08T11:55:11;19.20;79.50
43665;DHT22;29263;48.172;11.484;2023-10-08T11:57:45;19.20;79.30
43665;DHT22;29263;48.172;11.484;2023-10-08T12:00:12;19.30;79.30
43665;DHT22;29263;48.172;11.484;2023-10-08T12:02:47;19.20;79.30
43665;DHT22;29263;48.172;11.484;2023-10-08T12:05:13;19.20;78.90
43665;DHT22;29263;48.172;11.484;2023-10-08T12:07:48;19.30;78.80
43665;DHT22;29263;48.172;11.484;2023-10-08T12:10:17;19.30;78.50
43665;DHT22;29263;48.172;11.484;2023-10-08T12:12:50;19.30;78.60
43665;DHT22;29263;48.172;11.484;2023-10-08T12:15:22;19.30;79.20
43665;DHT22;29263;48.172;11.484;2023-10-08T12:17:52;19.30;77.90
43665;DHT22;29263;48.172;11.484;2023-10-08T12:20:39;19.30;78.50
43665;DHT22;29263;48.172;11.484;2023-10-08T12:23:10;19.30;79.50
43665;DHT22;29263;48.172;11.484;2023-10-08T12:25:51;19.30;78.90
43665;DHT22;29263;48.172;11.484;2023-10-08T12:28:18;19.20;78.40
43665;DHT22;29263;48.172;11.484;2023-10-08T12:30:45;19.20;78.10
43665;DHT22;29263;48.172;11.484;2023-10-08T12:33:10;19.30;79.60
43665;DHT22;29263;48.172;11.484;2023-10-08T12:35:43;19.20;79.20
43665;DHT22;29263;48.172;11.484;2023-10-08T12:38:09;19.20;79.40
43665;DHT22;29263;48.172;11.484;2023-10-08T12:40:36;19.20;79.60
43665;DHT22;29263;48.172;11.484;2023-10-08T12:43:15;19.10;80.00
43665;DHT22;29263;48.172;11.484;2023-10-08T12:45:45;19.10;80.20
43665;DHT22;29263;48.172;11.484;2023-10-08T12:48:26;19.10;79.40
43665;DHT22;29263;48.172;11.484;2023-10-08T12:50:53;19.10;79.50
43665;DHT22;29263;48.172;11.484;2023-10-08T12:53:28;19.10;79.50
43665;DHT22;29263;48.172;11.484;2023-10-08T12:56:06;19.10;81.30
43665;DHT22;29263;48.172;11.484;2023-10-08T12:58:35;19.10;81.00
43665;DHT22;29263;48.172;11.484;2023-10-08T13:01:07;19.10;82.10
43665;DHT22;29263;48.172;11.484;2023-10-08T13:03:36;19.10;81.70
43665;DHT22;29263;48.172;11.484;2023-10-08T13:06:10;19.10;82.00
43665;DHT22;29263;48.172;11.484;2023-10-08T13:08:47;19.10;83.00
43665;DHT22;29263;48.172;11.484;2023-10-08T13:11:13;19.10;83.20
43665;DHT22;29263;48.172;11.484;2023-10-08T13:13:38;19.20;80.80
43665;DHT22;29263;48.172;11.484;2023-10-08T13:16:04;19.20;80.20
43665;DHT22;29263;48.172;11.484;2023-10-08T13:18:36;19.30;80.10
43665;DHT22;29263;48.172;11.484;2023-10-08T13:21:08;19.40;78.40
43665;DHT22;29263;48.172;11.484;2023-10-08T13:23:35;19.50;79.70
43665;DHT22;29263;48.172;11.484;2023-10-08T13:26:01;19.50;78.90
43665;DHT22;29263;48.172;11.484;2023-10-08T13:28:30;19.70;78.10
43665;DHT22;29263;48.172;11.484;2023-10-08T13:31:05;19.70;78.10
43665;DHT22;29263;48.172;11.484;2023-10-08T13:33:41;19.70;77.80
43665;DHT22;29263;48.172;11.484;2023-10-08T13:36:14;19.80;79.40
43665;DHT22;29263;48.172;11.484;2023-10-08T13:38:40;19.90;78.90
43665;DHT22;29263;48.172;11.484;2023-10-08T13:41:09;19.90;78.30
43665;DHT22;29263;48.172;11.484;2023-10-08T13:46:07;19.90;79.50
43665;DHT22;29263;48.172;11.484;2023-10-08T13:48:40;19.90;79.70
43665;DHT22;29263;48.172;11.484;2023-10-08T13:51:06;19.80;78.70
43665;DHT22;29263;48.172;11.484;2023-10-08T13:53:39;19.80;78.40
43665;DHT22;29263;48.172;11.484;2023-10-08T13:56:06;19.90;78.80
43665;DHT22;29263;48.172;11.484;2023-10-08T13:58:31;19.90;78.90
43665;DHT22;29263;48.172;11.484;2023-10-08T14:01:00;19.90;79.00
43665;DHT22;29263;48.172;11.484;2023-10-08T14:03:30;19.90;78.60
43665;DHT22;29263;48.172;11.484;2023-10-08T14:05:59;19.80;78.90
43665;DHT22;29263;48.172;11.484;2023-10-08T14:08:30;19.90;79.40
43665;DHT22;29263;48.172;11.484;2023-10-08T14:10:57;19.90;79.60
43665;DHT22;29263;48.172;11.484;2023-10-08T14:13:32;19.90;78.80
43665;DHT22;29263;48.172;11.484;2023-10-08T14:15:58;19.90;79.30
43665;DHT22;29263;48.172;11.484;2023-10-08T14:18:24;19.90;79.20
43665;DHT22;29263;48.172;11.484;2023-10-08T14:20:55;19.90;79.10
43665;DHT22;29263;48.172;11.484;2023-10-08T14:23:22;19.80;79.00
43665;DHT22;29263;48.172;11.484;2023-10-08T14:25:49;19.90;79.90
43665;DHT22;29263;48.172;11.484;2023-10-08T14:28:18;19.90;78.80
43665;DHT22;29263;48.172;11.484;2023-10-08T14:31:03;19.80;78.80
43665;DHT22;29263;48.172;11.484;2023-10-08T14:33:29;19.80;79.30
43665;DHT22;29263;48.172;11.484;2023-10-08T14:35:57;19.80;80.90
43665;DHT22;29263;48.172;11.484;2023-10-08T14:38:41;19.70;80.80
43665;DHT22;29263;48.172;11.484;2023-10-08T14:41:25;19.70;79.60
43665;DHT22;29263;48.172;11.484;2023-10-08T14:44:09;19.70;79.70
43665;DHT22;29263;48.172;11.484;2023-10-08T14:46:36;19.70;80.20
43665;DHT22;29263;48.172;11.484;2023-10-08T14:49:02;19.70;81.60
43665;DHT22;29263;48.172;11.484;2023-10-08T14:51:28;19.60;81.60
43665;DHT22;29263;48.172;11.484;2023-10-08T14:53:55;19.60;83.40
43665;DHT22;29263;48.172;11.484;2023-10-08T14:56:21;19.50;82.40
43665;DHT22;29263;48.172;11.484;2023-10-08T14:58:48;19.50;81.90
43665;DHT22;29263;48.172;11.484;2023-10-08T15:01:14;19.50;82.00
43665;DHT22;29263;48.172;11.484;2023-10-08T15:03:40;19.40;82.30
43665;DHT22;29263;48.172;11.484;2023-10-08T15:06:06;19.40;82.90
43665;DHT22;29263;48.172;11.484;2023-10-08T15:08:33;19.40;83.30
43665;DHT22;29263;48.172;11.484;2023-10-08T15:10:59;19.40;83.60
43665;DHT22;29263;48.172;11.484;2023-10-08T15:13:25;19.30;85.70
43665;DHT22;29263;48.172;11.484;2023-10-08T15:15:52;19.30;87.20
43665;DHT22;29263;48.172;11.484;2023-10-08T15:18:19;19.20;87.20
43665;DHT22;29263;48.172;11.484;2023-10-08T15:20:46;19.20;89.00
43665;DHT22;29263;48.172;11.484;2023-10-08T15:23:12;19.10;90.00
43665;DHT22;29263;48.172;11.484;2023-10-08T15:25:37;19.10;89.80
43665;DHT22;29263;48.172;11.484;2023-10-08T15:28:04;19.00;89.90
43665;DHT22;29263;48.172;11.484;2023-10-08T15:30:29;19.00;89.00
43665;DHT22;29263;48.172;11.484;2023-10-08T15:32:55;18.90;89.70
43665;DHT22;29263;48.172;11.484;2023-10-08T15:35:21;18.90;89.30
43665;DHT22;29263;48.172;11.484;2023-10-08T15:37:49;18.90;89.80
43665;DHT22;29263;48.172;11.484;2023-10-08T15:40:15;18.90;90.40
43665;DHT22;29263;48.172;11.484;2023-10-08T15:42:49;18.80;91.30
43665;DHT22;29263;48.172;11.484;2023-10-08T15:45:22;18.70;91.20
43665;DHT22;29263;48.172;11.484;2023-10-08T15:47:49;18.60;90.40